Flight Track Log - Related Links

Times and Time Zones

All times are in EDT time to prevent confusion due to time zone crossing. See the N332MT flight status page for this flight to view local times or setup timezone preferences in your user account.


Time Position Orientation Groundspeed Altitude Reporting Facility
EDT Latitude Longitude Course Direction KTS MPH feet Rate Location/Type
Thu 03:59:25 PM 32.4378 -92.7442 264° West 226 260 11,100  Level Fort Worth Center
Thu 04:00:25 PM 32.4306 -92.8281 264° West 269 310 12,400 1,653 Climbing Fort Worth Center
Thu 04:01:03 PM 32.4289 -92.8997 268° West 311 358 13,800 2,000 Climbing Fort Worth Center
Thu 04:01:25 PM 32.4281 -92.9367 268° West 299 344 14,400 1,279 Climbing Fort Worth Center
Thu 04:02:04 PM 32.4283 -93.0031 270° West 319 367 15,100 1,000 Climbing Fort Worth Center
Thu 04:02:25 PM 32.4253 -93.0328 263° West 322 371 15,400 1,000 Climbing Fort Worth Center
Thu 04:02:52 PM 32.4256 -93.0992 270° West 345 397 15,900 600 Climbing Fort Worth Center
Thu 04:03:25 PM 32.4233 -93.1583 267° West 338 389 16,000 65 Climbing Fort Worth Center
Thu 04:04:25 PM 32.4225 -93.2567 269° West 345 397 16,000  Level Fort Worth Center
Thu 04:05:25 PM 32.4203 -93.3822 269° West 345 397 16,000  Level Fort Worth Center
Thu 04:06:25 PM 32.4192 -93.4783 269° West 345 397 16,000  Level Fort Worth Center
Thu 04:07:25 PM 32.4144 -93.5992 267° West 345 397 16,000 -100 Level Fort Worth Center
Thu 04:08:25 PM 32.4136 -93.7100 270° West 345 397 15,800 -350 Descending Fort Worth Center
Thu 04:09:25 PM 32.4106 -93.8183 268° West 345 397 15,300 -1,000 Descending Fort Worth Center
Thu 04:10:25 PM 32.4094 -93.9267 269° West 340 391 13,800 -1,750 Descending Fort Worth Center
Thu 04:11:25 PM 32.4058 -94.0300 268° West 324 373 11,800 -1,800 Descending Fort Worth Center
Thu 04:12:25 PM 32.4022 -94.1286 268° West 312 359 10,200 -1,750 Descending Fort Worth Center
Thu 04:13:25 PM 32.4006 -94.2269 269° West 307 353 8,300 -1,700 Descending Fort Worth Center
Thu 04:14:25 PM 32.3989 -94.3206 269° West 294 338 6,800 -1,550 Descending Fort Worth Center
Thu 04:15:25 PM 32.3967 -94.4092 268° West 281 323 5,200 -1,550 Descending Fort Worth Center
Thu 04:16:25 PM 32.3947 -94.4978 269° West 276 318 3,700 -1,500 Descending Fort Worth Center
Thu 04:17:25 PM 32.4133 -94.5833 284° West 269 310 2,200 -750 Descending Fort Worth Center
Thu 04:18:25 PM 32.4250 -94.6422 283° West 247 284 2,200 -350 Level Fort Worth Center
Thu 04:19:25 PM 32.4372 -94.7256 280° West 220 253 1,500 -700 Descending Fort Worth Center

Login

Don't have an account? Register now (free) for customized features, flight alerts, and more!